createdAt,value
2023-01-19T00:01:28.037Z,97.61
2023-01-19T00:03:54.791Z,97.71
2023-01-19T00:06:21.541Z,97.52
2023-01-19T00:08:52.978Z,97.58
2023-01-19T00:11:19.899Z,97.49
2023-01-19T00:13:50.608Z,97.71
2023-01-19T00:16:18.967Z,97.57
2023-01-19T00:18:46.701Z,97.79
2023-01-19T00:21:17.258Z,97.55
2023-01-19T00:23:47.441Z,97.59
2023-01-19T00:26:16.340Z,97.70
2023-01-19T00:28:44.992Z,97.57
2023-01-19T00:31:12.237Z,97.86
2023-01-19T00:33:38.869Z,97.78
2023-01-19T00:36:05.720Z,98.20
2023-01-19T00:38:32.397Z,98.30
2023-01-19T00:40:59.568Z,98.47
2023-01-19T00:43:26.180Z,98.52
2023-01-19T00:45:53.638Z,98.53
2023-01-19T00:48:20.404Z,97.98
2023-01-19T00:50:49.134Z,97.91
2023-01-19T00:53:15.808Z,97.91
2023-01-19T00:55:42.459Z,97.92
2023-01-19T00:58:09.717Z,98.14
2023-01-19T01:00:39.205Z,98.03
2023-01-19T01:03:05.874Z,98.26
2023-01-19T01:05:32.580Z,98.48
2023-01-19T01:07:59.322Z,98.31
2023-01-19T01:10:28.722Z,98.53
2023-01-19T01:13:20.397Z,98.11
2023-01-19T01:15:42.705Z,98.23
2023-01-19T01:18:10.031Z,98.36
2023-01-19T01:20:37.162Z,98.23
2023-01-19T01:23:04.388Z,98.44
2023-01-19T01:25:31.599Z,98.32
2023-01-19T01:27:58.268Z,98.16
2023-01-19T01:30:30.820Z,98.06
2023-01-19T01:32:57.448Z,97.67
2023-01-19T01:35:24.169Z,97.69
2023-01-19T01:37:50.827Z,98.07
2023-01-19T01:40:19.080Z,97.93
2023-01-19T01:42:46.068Z,97.95
2023-01-19T01:45:38.499Z,98.01
2023-01-19T01:48:13.993Z,97.98
2023-01-19T01:51:12.118Z,98.02
2023-01-19T01:53:43.511Z,98.15
2023-01-19T01:56:17.866Z,97.66
2023-01-19T01:58:49.811Z,97.75
2023-01-19T02:01:35.375Z,97.68
2023-01-19T02:04:02.409Z,97.31
2023-01-19T02:06:29.571Z,97.20
2023-01-19T02:09:22.647Z,97.37
2023-01-19T02:12:10.793Z,97.04
2023-01-19T02:14:40.639Z,97.08
2023-01-19T02:17:07.719Z,97.22
2023-01-19T02:19:43.473Z,97.42
2023-01-19T02:22:20.210Z,97.54
2023-01-19T02:24:47.179Z,97.64
2023-01-19T02:27:27.055Z,97.85
2023-01-19T02:29:56.928Z,97.37
2023-01-19T02:32:23.729Z,97.58
2023-01-19T02:34:50.374Z,97.61
2023-01-19T02:37:21.656Z,97.60
2023-01-19T02:40:10.974Z,96.95
2023-01-19T02:42:45.480Z,97.17
2023-01-19T02:45:14.525Z,97.26
2023-01-19T02:47:52.478Z,96.84
2023-01-19T02:50:50.530Z,96.15
2023-01-19T02:53:29.322Z,96.65
2023-01-19T02:56:25.066Z,96.98
2023-01-19T02:59:03.542Z,96.81
2023-01-19T03:01:48.157Z,96.64
2023-01-19T03:04:25.852Z,96.36
2023-01-19T03:07:00.891Z,95.95
2023-01-19T03:09:53.170Z,95.80
2023-01-19T03:12:49.848Z,95.82
2023-01-19T03:15:27.277Z,96.18
2023-01-19T03:17:57.122Z,96.14
2023-01-19T03:20:25.644Z,95.88
2023-01-19T03:23:00.452Z,96.40
2023-01-19T03:25:30.290Z,97.00
2023-01-19T03:27:57.638Z,97.28
2023-01-19T03:30:36.216Z,97.53
2023-01-19T03:33:17.811Z,97.25
2023-01-19T03:35:52.882Z,97.42
2023-01-19T03:38:25.525Z,97.28
2023-01-19T03:41:00.216Z,97.33
2023-01-19T03:43:29.299Z,97.13
2023-01-19T03:45:57.003Z,96.33
2023-01-19T03:48:27.287Z,96.53
2023-01-19T03:51:03.519Z,96.98
2023-01-19T03:53:30.109Z,97.26
2023-01-19T03:55:57.179Z,97.45
2023-01-19T03:58:26.940Z,96.79
2023-01-19T04:00:53.600Z,97.11
2023-01-19T04:03:20.297Z,97.51
2023-01-19T04:05:46.941Z,97.75
2023-01-19T04:08:16.453Z,97.70
2023-01-19T04:10:43.136Z,97.67
2023-01-19T04:13:09.725Z,97.62
2023-01-19T04:15:43.670Z,97.34
2023-01-19T04:18:10.318Z,97.33
2023-01-19T04:20:37.520Z,97.05
2023-01-19T04:23:05.958Z,95.97
2023-01-19T04:25:33.331Z,95.76
2023-01-19T04:28:06.784Z,95.50
2023-01-19T04:30:33.446Z,95.65
2023-01-19T04:33:00.546Z,96.24
2023-01-19T04:35:27.383Z,95.86
2023-01-19T04:37:54.008Z,95.52
2023-01-19T04:40:20.749Z,95.63
2023-01-19T04:42:47.514Z,94.68
2023-01-19T04:45:14.638Z,95.26
2023-01-19T04:47:42.833Z,94.98
2023-01-19T04:50:11.681Z,95.40
2023-01-19T04:52:39.635Z,95.81
2023-01-19T04:55:07.544Z,95.32
2023-01-19T04:57:37.343Z,95.42
2023-01-19T05:00:07.657Z,95.68
2023-01-19T05:02:35.034Z,95.71
2023-01-19T05:05:02.331Z,96.00
2023-01-19T05:07:31.630Z,96.13
2023-01-19T05:10:00.890Z,96.49
2023-01-19T05:12:27.735Z,96.22
2023-01-19T05:14:54.386Z,96.22
2023-01-19T05:17:21.049Z,96.49
2023-01-19T05:19:48.911Z,96.44
2023-01-19T05:22:16.205Z,96.36
2023-01-19T05:24:43.316Z,96.14
2023-01-19T05:27:10.108Z,95.93
2023-01-19T05:29:39.483Z,96.55
2023-01-19T05:32:06.409Z,96.75
2023-01-19T05:34:37.102Z,96.92
2023-01-19T05:37:03.765Z,96.95
2023-01-19T05:39:32.725Z,97.02
2023-01-19T05:42:02.460Z,97.05
2023-01-19T05:44:29.714Z,97.00
2023-01-19T05:46:56.574Z,97.07
2023-01-19T05:49:23.290Z,96.83
2023-01-19T05:51:56.844Z,96.49
2023-01-19T05:54:23.819Z,96.57
2023-01-19T05:56:54.140Z,96.62
2023-01-19T05:59:25.089Z,96.73
2023-01-19T06:01:55.269Z,96.71
2023-01-19T06:04:25.827Z,96.65
2023-01-19T06:06:55.747Z,96.65
2023-01-19T06:09:22.426Z,96.81
2023-01-19T06:11:50.010Z,96.59
2023-01-19T06:14:18.154Z,96.23
2023-01-19T06:16:45.263Z,96.22
2023-01-19T06:19:15.141Z,96.26
2023-01-19T06:21:41.913Z,96.78
2023-01-19T06:24:15.503Z,96.59
2023-01-19T06:26:45.526Z,96.39
2023-01-19T06:29:16.347Z,96.25
2023-01-19T06:31:44.236Z,96.07
2023-01-19T06:34:11.492Z,96.28
2023-01-19T06:36:41.221Z,96.66
2023-01-19T06:39:13.418Z,96.56
2023-01-19T06:41:47.279Z,96.79
2023-01-19T06:44:17.065Z,95.93
2023-01-19T06:46:46.624Z,95.32
2023-01-19T06:49:13.240Z,95.31
2023-01-19T06:51:39.883Z,95.56
2023-01-19T06:54:06.643Z,96.02
2023-01-19T06:56:33.314Z,96.19
2023-01-19T06:59:00.017Z,96.25
2023-01-19T07:01:27.098Z,96.09
2023-01-19T07:03:59.772Z,96.37
2023-01-19T07:06:26.503Z,96.59
2023-01-19T07:08:54.351Z,96.66
2023-01-19T07:11:23.613Z,96.81
2023-01-19T07:14:05.807Z,96.92
2023-01-19T07:16:35.176Z,95.78
2023-01-19T07:19:04.678Z,95.16
2023-01-19T07:21:31.332Z,95.60
2023-01-19T07:24:01.040Z,95.76
2023-01-19T07:26:28.087Z,96.17
2023-01-19T07:28:55.016Z,95.23
2023-01-19T07:31:21.813Z,95.46
2023-01-19T07:33:48.650Z,94.21
2023-01-19T07:36:15.556Z,94.94
2023-01-19T07:38:42.247Z,94.84
2023-01-19T07:41:10.244Z,94.83
2023-01-19T07:43:36.871Z,95.59
2023-01-19T07:46:05.774Z,96.05
2023-01-19T07:48:32.690Z,96.47
2023-01-19T07:51:01.199Z,96.65
2023-01-19T07:53:27.867Z,96.90
2023-01-19T07:55:58.342Z,96.90
2023-01-19T07:58:25.446Z,96.69
2023-01-19T08:00:52.810Z,96.20
2023-01-19T08:03:19.674Z,95.99
2023-01-19T08:05:51.346Z,95.67
2023-01-19T08:08:18.432Z,96.09
2023-01-19T08:10:45.308Z,95.98
2023-01-19T08:13:12.232Z,95.98
2023-01-19T08:15:38.865Z,96.12
2023-01-19T08:18:06.286Z,96.35
2023-01-19T08:20:33.024Z,96.49
2023-01-19T08:23:00.429Z,96.22
2023-01-19T08:25:42.397Z,95.39
2023-01-19T08:28:10.542Z,95.68
2023-01-19T08:30:37.650Z,95.41
2023-01-19T08:33:04.697Z,95.37
2023-01-19T08:35:32.390Z,95.53
2023-01-19T08:38:01.676Z,95.66
2023-01-19T08:40:30.251Z,95.20
2023-01-19T08:43:04.897Z,94.74
2023-01-19T08:45:32.898Z,95.11
2023-01-19T08:48:06.521Z,95.21
2023-01-19T08:50:34.300Z,94.99
2023-01-19T08:53:02.964Z,94.72
2023-01-19T08:55:30.406Z,94.29
2023-01-19T08:58:00.280Z,94.64
2023-01-19T09:00:27.575Z,94.86
2023-01-19T09:02:57.983Z,94.20
2023-01-19T09:05:25.063Z,94.12
2023-01-19T09:07:51.841Z,94.33
2023-01-19T09:10:19.583Z,93.77
2023-01-19T09:12:46.630Z,94.27
2023-01-19T09:15:16.252Z,94.24
2023-01-19T09:17:45.574Z,94.45
2023-01-19T09:20:12.363Z,94.08
2023-01-19T09:22:42.394Z,94.30
2023-01-19T09:25:12.553Z,94.29
2023-01-19T09:27:39.195Z,93.83
2023-01-19T09:30:06.960Z,93.02
2023-01-19T09:32:33.746Z,92.96
2023-01-19T09:35:00.429Z,92.97
2023-01-19T09:37:27.107Z,93.32
2023-01-19T09:39:53.924Z,93.39
2023-01-19T09:42:46.410Z,93.88
2023-01-19T09:45:23.094Z,93.72
2023-01-19T09:47:50.858Z,93.78
2023-01-19T09:50:31.927Z,93.21
2023-01-19T09:53:13.838Z,93.79
2023-01-19T09:55:42.680Z,93.08
2023-01-19T09:58:19.430Z,94.05
2023-01-19T10:00:53.385Z,92.64
2023-01-19T10:03:21.031Z,93.09
2023-01-19T10:06:03.650Z,92.55
2023-01-19T10:08:39.947Z,93.37
2023-01-19T10:11:22.966Z,93.33
2023-01-19T10:13:51.909Z,92.68
2023-01-19T10:16:32.256Z,92.74
2023-01-19T10:19:23.920Z,92.62
2023-01-19T10:21:51.643Z,91.16
2023-01-19T10:24:30.430Z,91.36
2023-01-19T10:27:00.627Z,90.88
2023-01-19T10:29:40.807Z,91.78
2023-01-19T10:32:11.321Z,91.41
2023-01-19T10:34:38.214Z,91.43
2023-01-19T10:37:17.258Z,89.50
2023-01-19T10:39:55.133Z,91.47
2023-01-19T10:42:22.801Z,90.57
2023-01-19T10:44:52.836Z,91.00
2023-01-19T10:47:22.934Z,89.87
2023-01-19T10:49:49.816Z,91.88
2023-01-19T10:52:36.123Z,91.49
2023-01-19T10:55:04.942Z,89.93
2023-01-19T10:57:38.516Z,89.96
2023-01-19T11:00:08.096Z,89.79
2023-01-19T11:02:35.055Z,89.00
2023-01-19T11:05:23.316Z,90.12
2023-01-19T11:07:49.988Z,91.57
2023-01-19T11:10:16.658Z,88.41
2023-01-19T11:13:01.471Z,89.91
2023-01-19T11:15:53.007Z,88.54
2023-01-19T11:18:40.109Z,88.04
2023-01-19T11:21:17.340Z,87.87
2023-01-19T11:23:59.075Z,89.47
2023-01-19T11:26:42.854Z,88.35
2023-01-19T11:29:26.437Z,86.18
2023-01-19T11:31:54.549Z,89.04
2023-01-19T11:34:38.761Z,86.55
2023-01-19T11:37:20.362Z,85.26
2023-01-19T11:39:53.034Z,84.97
2023-01-19T11:42:20.179Z,87.71
2023-01-19T11:45:04.524Z,83.67
2023-01-19T11:47:41.314Z,82.92
2023-01-19T11:50:26.608Z,83.90
2023-01-19T11:53:12.022Z,86.49
2023-01-19T11:56:04.545Z,83.15
2023-01-19T11:58:35.912Z,84.03
2023-01-19T12:01:11.278Z,82.94
2023-01-19T12:03:46.826Z,84.37
2023-01-19T12:06:20.569Z,84.68
2023-01-19T12:08:52.562Z,83.26
2023-01-19T12:11:29.736Z,84.60
2023-01-19T12:13:56.349Z,84.35
2023-01-19T12:16:35.486Z,84.32
2023-01-19T12:19:15.048Z,83.95
2023-01-19T12:21:42.579Z,82.37
2023-01-19T12:24:36.303Z,85.64
2023-01-19T12:27:19.899Z,84.28
2023-01-19T12:29:47.346Z,83.17
2023-01-19T12:32:13.958Z,84.23
2023-01-19T12:34:48.022Z,83.63
2023-01-19T12:37:44.233Z,84.25
2023-01-19T12:40:13.657Z,83.16
2023-01-19T12:42:46.665Z,84.73
2023-01-19T12:45:25.836Z,83.87
2023-01-19T12:47:58.841Z,83.77
2023-01-19T12:50:26.947Z,84.83
2023-01-19T12:52:58.470Z,83.52
2023-01-19T12:55:35.003Z,83.56
2023-01-19T12:58:12.943Z,84.15
2023-01-19T13:00:48.111Z,80.78
2023-01-19T13:03:17.605Z,79.58
2023-01-19T13:05:44.252Z,79.04
2023-01-19T13:08:12.583Z,79.53
2023-01-19T13:11:02.312Z,78.07
2023-01-19T13:13:28.921Z,78.86
2023-01-19T13:15:57.208Z,80.77
2023-01-19T13:18:26.619Z,82.54
2023-01-19T13:21:00.519Z,82.58
2023-01-19T13:23:52.046Z,83.89
2023-01-19T13:26:21.748Z,85.25
2023-01-19T13:29:05.399Z,85.35
2023-01-19T13:31:41.451Z,85.77
2023-01-19T13:34:18.820Z,86.99
2023-01-19T13:36:50.896Z,87.97
2023-01-19T13:39:24.745Z,86.29
2023-01-19T13:41:55.014Z,85.80
2023-01-19T13:44:39.285Z,86.11
2023-01-19T13:47:13.468Z,86.70
2023-01-19T13:49:44.833Z,87.29
2023-01-19T13:52:26.360Z,86.44
2023-01-19T13:54:59.790Z,86.67
2023-01-19T13:57:31.770Z,86.28
2023-01-19T14:00:31.846Z,86.72
2023-01-19T14:03:02.653Z,86.85
2023-01-19T14:05:40.335Z,87.10
2023-01-19T14:08:12.940Z,87.85
2023-01-19T14:11:06.146Z,87.56
2023-01-19T14:13:44.219Z,88.25
2023-01-19T14:16:17.043Z,88.21
2023-01-19T14:18:44.018Z,87.69
2023-01-19T14:21:15.067Z,87.89
2023-01-19T14:23:41.641Z,87.79
2023-01-19T14:26:43.141Z,88.12
2023-01-19T14:29:21.861Z,88.75
2023-01-19T14:32:05.144Z,88.20
2023-01-19T14:34:54.575Z,87.81
2023-01-19T14:37:23.061Z,87.36
2023-01-19T14:39:59.015Z,87.68
2023-01-19T14:42:36.007Z,87.95
2023-01-19T14:45:08.063Z,88.12
2023-01-19T14:47:41.715Z,88.17
2023-01-19T14:50:17.942Z,88.58
2023-01-19T14:52:57.609Z,88.91
2023-01-19T14:55:48.460Z,89.60
2023-01-19T14:58:18.712Z,89.38
2023-01-19T15:00:46.435Z,89.89
2023-01-19T15:03:13.433Z,90.13
2023-01-19T15:05:44.165Z,90.26
2023-01-19T15:08:34.558Z,90.38
2023-01-19T15:11:14.012Z,90.75
2023-01-19T15:13:41.785Z,90.65
2023-01-19T15:16:10.855Z,90.76
2023-01-19T15:18:38.585Z,91.07
2023-01-19T15:21:06.077Z,90.54
2023-01-19T15:23:33.457Z,90.75
2023-01-19T15:26:02.262Z,91.40
2023-01-19T15:28:30.398Z,91.76
2023-01-19T15:30:59.413Z,91.74
2023-01-19T15:33:30.570Z,92.01
2023-01-19T15:36:00.724Z,92.51
2023-01-19T15:38:27.844Z,92.45
2023-01-19T15:40:54.489Z,92.55
2023-01-19T15:43:21.558Z,92.71
2023-01-19T15:45:54.805Z,92.60
2023-01-19T15:48:25.304Z,92.45
2023-01-19T15:50:51.948Z,92.24
2023-01-19T15:53:20.862Z,92.30
2023-01-19T15:55:52.963Z,91.69
2023-01-19T15:58:20.808Z,92.31
2023-01-19T16:00:57.422Z,92.24
2023-01-19T16:03:25.881Z,92.74
2023-01-19T16:05:52.672Z,92.80
2023-01-19T16:08:22.197Z,93.58
2023-01-19T16:10:48.838Z,94.00
2023-01-19T16:13:15.450Z,94.25
2023-01-19T16:15:42.668Z,94.35
2023-01-19T16:18:09.601Z,94.66
2023-01-19T16:20:36.292Z,94.61
2023-01-19T16:23:14.735Z,94.77
2023-01-19T16:25:42.024Z,94.77
2023-01-19T16:28:09.301Z,94.38
2023-01-19T16:30:36.135Z,94.39
2023-01-19T16:33:02.828Z,94.53
2023-01-19T16:35:29.480Z,94.24
2023-01-19T16:37:56.169Z,94.09
2023-01-19T16:40:25.381Z,94.51
2023-01-19T16:42:53.726Z,94.19
2023-01-19T16:45:20.344Z,94.69
2023-01-19T16:47:50.643Z,94.47
2023-01-19T16:50:32.495Z,94.30
2023-01-19T16:52:59.378Z,94.36
2023-01-19T16:55:26.141Z,94.56
2023-01-19T16:58:01.672Z,94.79
2023-01-19T17:00:28.407Z,94.55
2023-01-19T17:02:57.590Z,94.59
2023-01-19T17:05:24.325Z,94.51
2023-01-19T17:07:50.964Z,94.94
2023-01-19T17:10:25.311Z,94.83
2023-01-19T17:12:51.913Z,94.20
2023-01-19T17:15:18.983Z,93.99
2023-01-19T17:17:47.804Z,94.03
2023-01-19T17:20:14.697Z,93.90
2023-01-19T17:22:41.466Z,93.54
2023-01-19T17:25:08.583Z,93.62
2023-01-19T17:27:36.719Z,93.46
2023-01-19T17:30:07.164Z,93.75
2023-01-19T17:32:33.883Z,93.25
2023-01-19T17:35:00.545Z,93.26
2023-01-19T17:37:27.202Z,93.42
2023-01-19T17:39:56.659Z,93.52
2023-01-19T17:42:24.435Z,93.50
2023-01-19T17:44:51.068Z,93.67
2023-01-19T17:47:17.887Z,93.24
2023-01-19T17:49:47.476Z,93.40
2023-01-19T17:52:15.884Z,93.26
2023-01-19T17:54:43.649Z,93.08
2023-01-19T17:57:10.844Z,93.32
2023-01-19T17:59:43.783Z,93.50
2023-01-19T18:02:10.926Z,93.91
2023-01-19T18:04:38.848Z,93.68
2023-01-19T18:07:05.858Z,93.54
2023-01-19T18:09:32.557Z,93.42
2023-01-19T18:11:59.320Z,93.21
2023-01-19T18:14:26.007Z,93.10
2023-01-19T18:16:52.622Z,92.95
2023-01-19T18:19:22.191Z,93.46
2023-01-19T18:21:48.879Z,93.23
2023-01-19T18:24:15.540Z,93.66
2023-01-19T18:26:42.754Z,93.46
2023-01-19T18:29:09.550Z,93.89
2023-01-19T18:31:39.306Z,93.90
2023-01-19T18:34:05.922Z,93.96
2023-01-19T18:36:34.333Z,94.19
2023-01-19T18:39:01.736Z,94.48
2023-01-19T18:41:29.956Z,94.63
2023-01-19T18:44:02.230Z,94.58
2023-01-19T18:46:38.528Z,94.77
2023-01-19T18:49:05.959Z,94.78
2023-01-19T18:51:32.660Z,94.89
2023-01-19T18:53:59.891Z,94.88
2023-01-19T18:56:26.770Z,94.79
2023-01-19T18:58:53.557Z,94.19
2023-01-19T19:01:25.893Z,94.29
2023-01-19T19:03:53.823Z,94.27
2023-01-19T19:06:21.458Z,93.95
2023-01-19T19:08:54.947Z,93.59
2023-01-19T19:11:23.970Z,93.41
2023-01-19T19:13:54.907Z,93.70
2023-01-19T19:16:21.724Z,93.77
2023-01-19T19:18:50.117Z,93.60
2023-01-19T19:21:20.695Z,93.50
2023-01-19T19:23:54.388Z,93.51
2023-01-19T19:26:21.165Z,93.30
2023-01-19T19:28:48.015Z,93.23
2023-01-19T19:31:18.245Z,93.24
2023-01-19T19:33:45.019Z,92.94
2023-01-19T19:36:15.036Z,92.66
2023-01-19T19:38:43.347Z,92.64
2023-01-19T19:41:13.527Z,92.79
2023-01-19T19:43:40.401Z,92.87
2023-01-19T19:46:10.063Z,92.99
2023-01-19T19:48:39.867Z,93.15
2023-01-19T19:51:18.081Z,92.97
2023-01-19T19:53:46.424Z,92.91
2023-01-19T19:56:13.582Z,93.16
2023-01-19T19:58:44.663Z,92.90
2023-01-19T20:01:14.198Z,93.08
2023-01-19T20:03:41.511Z,93.32
2023-01-19T20:06:10.646Z,93.42
2023-01-19T20:08:37.460Z,93.50
2023-01-19T20:11:13.283Z,93.20
2023-01-19T20:13:42.065Z,93.19
2023-01-19T20:16:18.336Z,93.45
2023-01-19T20:18:51.474Z,93.50
2023-01-19T20:21:24.348Z,93.56
2023-01-19T20:23:53.055Z,93.39
2023-01-19T20:26:23.056Z,93.25
2023-01-19T20:28:49.879Z,92.91
2023-01-19T20:31:22.436Z,93.00
2023-01-19T20:33:50.409Z,92.84
2023-01-19T20:36:17.400Z,93.11
2023-01-19T20:38:44.313Z,92.97
2023-01-19T20:41:12.836Z,92.87
2023-01-19T20:43:39.788Z,93.05
2023-01-19T20:46:06.875Z,92.96
2023-01-19T20:48:33.640Z,93.19
2023-01-19T20:51:06.284Z,92.97
2023-01-19T20:53:33.602Z,92.99
2023-01-19T20:56:06.229Z,92.72
2023-01-19T20:58:33.382Z,92.84
2023-01-19T21:01:00.436Z,93.11
2023-01-19T21:03:30.092Z,93.15
2023-01-19T21:05:59.516Z,93.21
2023-01-19T21:08:26.321Z,93.30
2023-01-19T21:10:56.709Z,93.53
2023-01-19T21:13:23.931Z,93.18
2023-01-19T21:15:53.710Z,93.31
2023-01-19T21:18:20.340Z,93.35
2023-01-19T21:20:50.029Z,93.24
2023-01-19T21:23:19.141Z,93.36
2023-01-19T21:25:57.005Z,93.66
2023-01-19T21:28:24.677Z,93.66
2023-01-19T21:30:58.240Z,93.92
2023-01-19T21:33:24.904Z,93.57
2023-01-19T21:35:56.999Z,93.60
2023-01-19T21:38:26.918Z,93.70
2023-01-19T21:40:54.554Z,93.55
2023-01-19T21:43:21.874Z,93.59
2023-01-19T21:45:49.168Z,93.90
2023-01-19T21:48:17.365Z,93.90
2023-01-19T21:50:44.588Z,94.06
2023-01-19T21:53:11.937Z,93.96
2023-01-19T21:55:47.293Z,94.29
2023-01-19T21:58:14.100Z,93.89
2023-01-19T22:00:41.224Z,94.07
2023-01-19T22:03:07.997Z,94.10
2023-01-19T22:05:36.959Z,94.32
2023-01-19T22:08:04.793Z,94.08
2023-01-19T22:10:31.431Z,94.25
2023-01-19T22:12:58.199Z,94.30
2023-01-19T22:15:25.182Z,94.28
2023-01-19T22:17:51.931Z,94.28
2023-01-19T22:20:18.692Z,93.93
2023-01-19T22:22:45.381Z,93.98
2023-01-19T22:25:15.236Z,93.96
2023-01-19T22:27:42.263Z,93.92
2023-01-19T22:30:09.378Z,93.92
2023-01-19T22:32:36.059Z,94.42
2023-01-19T22:35:02.729Z,94.42
2023-01-19T22:37:29.395Z,94.63
2023-01-19T22:39:56.047Z,94.51
2023-01-19T22:42:22.677Z,94.96
2023-01-19T22:44:49.357Z,95.34
2023-01-19T22:47:16.014Z,95.19
2023-01-19T22:49:45.254Z,95.37
2023-01-19T22:52:11.992Z,95.17
2023-01-19T22:54:38.680Z,95.41
2023-01-19T22:57:09.371Z,95.23
2023-01-19T22:59:35.956Z,95.69
2023-01-19T23:02:02.888Z,95.76
2023-01-19T23:04:29.557Z,95.48
2023-01-19T23:06:56.208Z,95.87
2023-01-19T23:09:22.852Z,96.07
2023-01-19T23:11:50.816Z,96.33
2023-01-19T23:14:21.127Z,96.09
2023-01-19T23:16:48.280Z,96.14
2023-01-19T23:19:18.163Z,96.46
2023-01-19T23:21:45.861Z,96.07
2023-01-19T23:24:12.616Z,96.38
2023-01-19T23:26:39.610Z,96.12
2023-01-19T23:29:14.939Z,96.15
2023-01-19T23:31:47.324Z,96.36
2023-01-19T23:34:14.962Z,96.27
2023-01-19T23:36:48.082Z,96.51
2023-01-19T23:39:17.449Z,96.31
2023-01-19T23:41:44.587Z,96.18
2023-01-19T23:44:11.308Z,96.34
2023-01-19T23:46:39.035Z,96.33
2023-01-19T23:49:05.720Z,96.76
2023-01-19T23:51:33.456Z,96.90
2023-01-19T23:54:00.893Z,96.87
2023-01-19T23:56:30.642Z,97.08
2023-01-19T23:59:04.100Z,96.92
